Aviation Digital Data Service (ADDS)

Output produced by METARs form (2346 UTC 20 January 2019)
found at http://www.aviationweather.gov/metar/data/
 
METAR text: ZGKL 202300Z 29002MPS 260V330 2800 BR SCT036 OVC066 05/04 Q1030 BECMG FM0100 3500
Conditions at: ZGKL (GUILIN , CN) observed 2300 UTC 20 January 2019
Temperature: 5.0°C (41°F)
Dewpoint: 4.0°C (39°F) [RH = 93%]
Pressure (altimeter): 30.41 inches Hg (1030.0 mb)
Winds: from the WNW (290 degrees) at 5 MPH (4 knots; 2.1 m/s)
Visibility: 1.74 miles (2.80 km)
Ceiling: 6600 feet AGL
Clouds: scattered clouds at 3600 feet AGL
overcast cloud deck at 6600 feet AGL
Weather: BR  (mist)

METAR text: ZGKL 202200Z VRB02MPS 3500 -RA BR SCT040 OVC073 06/04 Q1029 BECMG FM2300 2800
Conditions at: ZGKL (GUILIN , CN) observed 2200 UTC 20 January 2019
Temperature: 6.0°C (43°F)
Dewpoint: 4.0°C (39°F) [RH = 87%]
Pressure (altimeter): 30.38 inches Hg (1029.0 mb)
Winds: variable direction winds at 5 MPH (4 knots; 2.1 m/s)
Visibility: 2.17 miles (3.49 km)
Ceiling: 7300 feet AGL
Clouds: scattered clouds at 4000 feet AGL
overcast cloud deck at 7300 feet AGL
Weather: -RA BR  (light rain, mist)

METAR text: ZGKL 202100Z 06002MPS 3000 -RA BR SCT040 OVC070 06/04 Q1028 NOSIG
Conditions at: ZGKL (GUILIN , CN) observed 2100 UTC 20 January 2019
Temperature: 6.0°C (43°F)
Dewpoint: 4.0°C (39°F) [RH = 87%]
Pressure (altimeter): 30.35 inches Hg (1028.0 mb)
Winds: from the ENE (60 degrees) at 5 MPH (4 knots; 2.1 m/s)
Visibility: 1.86 miles (2.99 km)
Ceiling: 7000 feet AGL
Clouds: scattered clouds at 4000 feet AGL
overcast cloud deck at 7000 feet AGL
Weather: -RA BR  (light rain, mist)

METAR text: ZGKL 202000Z VRB02MPS 3800 -RA BR FEW046 OVC073 06/03 Q1028 NOSIG
Conditions at: ZGKL (GUILIN , CN) observed 2000 UTC 20 January 2019
Temperature: 6.0°C (43°F)
Dewpoint: 3.0°C (37°F) [RH = 81%]
Pressure (altimeter): 30.35 inches Hg (1028.0 mb)
Winds: variable direction winds at 5 MPH (4 knots; 2.1 m/s)
Visibility: 2.36 miles (3.80 km)
Ceiling: 7300 feet AGL
Clouds: few clouds at 4600 feet AGL
overcast cloud deck at 7300 feet AGL
Weather: -RA BR  (light rain, mist)

METAR text: ZGKL 201900Z VRB01MPS 4500 BR SCT050 06/04 Q1028 NOSIG
Conditions at: ZGKL (GUILIN , CN) observed 1900 UTC 20 January 2019
Temperature: 6.0°C (43°F)
Dewpoint: 4.0°C (39°F) [RH = 87%]
Pressure (altimeter): 30.35 inches Hg (1028.0 mb)
Winds: variable direction winds at 2 MPH (2 knots; 1.0 m/s)
Visibility: 2.80 miles (4.51 km)
Ceiling: at least 12,000 feet AGL
Clouds: scattered clouds at 5000 feet AGL
Weather: BR  (mist)

METAR text: ZGKL 201800Z 03002MPS 010V110 5000 BR SCT046 OVC073 07/03 Q1029 NOSIG
Conditions at: ZGKL (GUILIN , CN) observed 1800 UTC 20 January 2019
Temperature: 7.0°C (45°F)
Dewpoint: 3.0°C (37°F) [RH = 76%]
Pressure (altimeter): 30.38 inches Hg (1029.0 mb)
Winds: from the NNE (30 degrees) at 5 MPH (4 knots; 2.1 m/s)
Visibility: 3 miles ( 5 km)
Ceiling: 7300 feet AGL
Clouds: scattered clouds at 4600 feet AGL
overcast cloud deck at 7300 feet AGL
Weather: BR  (mist)

METAR text: ZGKL 201700Z 06003MPS 5000 BR SCT046 OVC073 07/03 Q1028 NOSIG
Conditions at: ZGKL (GUILIN , CN) observed 1700 UTC 20 January 2019
Temperature: 7.0°C (45°F)
Dewpoint: 3.0°C (37°F) [RH = 76%]
Pressure (altimeter): 30.35 inches Hg (1028.0 mb)
Winds: from the ENE (60 degrees) at 7 MPH (6 knots; 3.1 m/s)
Visibility: 3 miles ( 5 km)
Ceiling: 7300 feet AGL
Clouds: scattered clouds at 4600 feet AGL
overcast cloud deck at 7300 feet AGL
Weather: BR  (mist)

METAR text: ZGKL 201600Z 06003MPS 5000 BR BKN073 07/03 Q1028 NOSIG
Conditions at: ZGKL (GUILIN , CN) observed 1600 UTC 20 January 2019
Temperature: 7.0°C (45°F)
Dewpoint: 3.0°C (37°F) [RH = 76%]
Pressure (altimeter): 30.35 inches Hg (1028.0 mb)
Winds: from the ENE (60 degrees) at 7 MPH (6 knots; 3.1 m/s)
Visibility: 3 miles ( 5 km)
Ceiling: 7300 feet AGL
Clouds: broken clouds at 7300 feet AGL
Weather: BR  (mist)

METAR text: ZGKL 201500Z 06003MPS 8000 BKN073 07/03 Q1029 NOSIG
Conditions at: ZGKL (GUILIN , CN) observed 1500 UTC 20 January 2019
Temperature: 7.0°C (45°F)
Dewpoint: 3.0°C (37°F) [RH = 76%]
Pressure (altimeter): 30.38 inches Hg (1029.0 mb)
Winds: from the ENE (60 degrees) at 7 MPH (6 knots; 3.1 m/s)
Visibility: 5 miles ( 8 km)
Ceiling: 7300 feet AGL
Clouds: broken clouds at 7300 feet AGL
Weather: no significant weather observed at this time

METAR text: ZGKL 201400Z 05005MPS 9999 SCT030 OVC060 08/04 Q1029 NOSIG
Conditions at: ZGKL (GUILIN , CN) observed 1400 UTC 20 January 2019
Temperature: 8.0°C (46°F)
Dewpoint: 4.0°C (39°F) [RH = 76%]
Pressure (altimeter): 30.38 inches Hg (1029.0 mb)
Winds: from the NE (50 degrees) at 12 MPH (10 knots; 5.1 m/s)
Visibility: 6 or more miles (10+ km)
Ceiling: 6000 feet AGL
Clouds: scattered clouds at 3000 feet AGL
overcast cloud deck at 6000 feet AGL
Weather: no significant weather observed at this time

METAR text: ZGKL 201300Z 04006MPS 9999 SCT030 OVC050 08/03 Q1028 NOSIG
Conditions at: ZGKL (GUILIN , CN) observed 1300 UTC 20 January 2019
Temperature: 8.0°C (46°F)
Dewpoint: 3.0°C (37°F) [RH = 71%]
Pressure (altimeter): 30.35 inches Hg (1028.0 mb)
Winds: from the NE (40 degrees) at 14 MPH (12 knots; 6.2 m/s)
Visibility: 6 or more miles (10+ km)
Ceiling: 5000 feet AGL
Clouds: scattered clouds at 3000 feet AGL
overcast cloud deck at 5000 feet AGL
Weather: no significant weather observed at this time

METAR text: ZGKL 201200Z 05005MPS 9000 SCT030 OVC050 08/04 Q1027 NOSIG
Conditions at: ZGKL (GUILIN , CN) observed 1200 UTC 20 January 2019
Temperature: 8.0°C (46°F)
Dewpoint: 4.0°C (39°F) [RH = 76%]
Pressure (altimeter): 30.32 inches Hg (1027.0 mb)
Winds: from the NE (50 degrees) at 12 MPH (10 knots; 5.1 m/s)
Visibility: 6 miles ( 9 km)
Ceiling: 5000 feet AGL
Clouds: scattered clouds at 3000 feet AGL
overcast cloud deck at 5000 feet AGL
Weather: no significant weather observed at this time

METAR text: ZGKL 201100Z 07005MPS 6000 SCT030 OVC050 08/04 Q1027 NOSIG
Conditions at: ZGKL (GUILIN , CN) observed 1100 UTC 20 January 2019
Temperature: 8.0°C (46°F)
Dewpoint: 4.0°C (39°F) [RH = 76%]
Pressure (altimeter): 30.32 inches Hg (1027.0 mb)
Winds: from the ENE (70 degrees) at 12 MPH (10 knots; 5.1 m/s)
Visibility: 4 miles ( 6 km)
Ceiling: 5000 feet AGL
Clouds: scattered clouds at 3000 feet AGL
overcast cloud deck at 5000 feet AGL
Weather: no significant weather observed at this time

METAR text: ZGKL 201000Z 07006MPS 5000 BR SCT033 OVC050 08/05 Q1026 NOSIG
Conditions at: ZGKL (GUILIN , CN) observed 1000 UTC 20 January 2019
Temperature: 8.0°C (46°F)
Dewpoint: 5.0°C (41°F) [RH = 81%]
Pressure (altimeter): 30.30 inches Hg (1026.0 mb)
Winds: from the ENE (70 degrees) at 14 MPH (12 knots; 6.2 m/s)
Visibility: 3 miles ( 5 km)
Ceiling: 5000 feet AGL
Clouds: scattered clouds at 3300 feet AGL
overcast cloud deck at 5000 feet AGL
Weather: BR  (mist)

METAR text: ZGKL 200900Z 07005MPS 5000 BR SCT026 OVC053 09/05 Q1025 NOSIG
Conditions at: ZGKL (GUILIN , CN) observed 0900 UTC 20 January 2019
Temperature: 9.0°C (48°F)
Dewpoint: 5.0°C (41°F) [RH = 76%]
Pressure (altimeter): 30.27 inches Hg (1025.0 mb)
Winds: from the ENE (70 degrees) at 12 MPH (10 knots; 5.1 m/s)
Visibility: 3 miles ( 5 km)
Ceiling: 5300 feet AGL
Clouds: scattered clouds at 2600 feet AGL
overcast cloud deck at 5300 feet AGL
Weather: BR  (mist)

METAR text: ZGKL 200800Z 06007MPS 5000 BR FEW030 BKN056 09/05 Q1025 NOSIG
Conditions at: ZGKL (GUILIN , CN) observed 0800 UTC 20 January 2019
Temperature: 9.0°C (48°F)
Dewpoint: 5.0°C (41°F) [RH = 76%]
Pressure (altimeter): 30.27 inches Hg (1025.0 mb)
Winds: from the ENE (60 degrees) at 16 MPH (14 knots; 7.2 m/s)
Visibility: 3 miles ( 5 km)
Ceiling: 5600 feet AGL
Clouds: few clouds at 3000 feet AGL
broken clouds at 5600 feet AGL
Weather: BR  (mist)

METAR text: ZGKL 200700Z 06006MPS 7000 SCT026 OVC050 10/06 Q1025 NOSIG
Conditions at: ZGKL (GUILIN , CN) observed 0700 UTC 20 January 2019
Temperature: 10.0°C (50°F)
Dewpoint: 6.0°C (43°F) [RH = 76%]
Pressure (altimeter): 30.27 inches Hg (1025.0 mb)
Winds: from the ENE (60 degrees) at 14 MPH (12 knots; 6.2 m/s)
Visibility: 4 miles ( 7 km)
Ceiling: 5000 feet AGL
Clouds: scattered clouds at 2600 feet AGL
overcast cloud deck at 5000 feet AGL
Weather: no significant weather observed at this time

METAR text: ZGKL 200600Z 07004MPS 040V100 8000 SCT026 OVC050 10/07 Q1026 NOSIG
Conditions at: ZGKL (GUILIN , CN) observed 0600 UTC 20 January 2019
Temperature: 10.0°C (50°F)
Dewpoint: 7.0°C (45°F) [RH = 82%]
Pressure (altimeter): 30.30 inches Hg (1026.0 mb)
Winds: from the ENE (70 degrees) at 9 MPH (8 knots; 4.1 m/s)
Visibility: 5 miles ( 8 km)
Ceiling: 5000 feet AGL
Clouds: scattered clouds at 2600 feet AGL
overcast cloud deck at 5000 feet AGL
Weather: no significant weather observed at this time

METAR text: ZGKL 200500Z 04004MPS 8000 -RA SCT030 OVC046 10/07 Q1027 NOSIG
Conditions at: ZGKL (GUILIN , CN) observed 0500 UTC 20 January 2019
Temperature: 10.0°C (50°F)
Dewpoint: 7.0°C (45°F) [RH = 82%]
Pressure (altimeter): 30.32 inches Hg (1027.0 mb)
Winds: from the NE (40 degrees) at 9 MPH (8 knots; 4.1 m/s)
Visibility: 5 miles ( 8 km)
Ceiling: 4600 feet AGL
Clouds: scattered clouds at 3000 feet AGL
overcast cloud deck at 4600 feet AGL
Weather: -RA  (light rain)

METAR text: ZGKL 200400Z 02003MPS 4500 BR FEW013 BKN026 OVC046 09/07 Q1027 NOSIG
Conditions at: ZGKL (GUILIN , CN) observed 0400 UTC 20 January 2019
Temperature: 9.0°C (48°F)
Dewpoint: 7.0°C (45°F) [RH = 87%]
Pressure (altimeter): 30.32 inches Hg (1027.0 mb)
Winds: from the NNE (20 degrees) at 7 MPH (6 knots; 3.1 m/s)
Visibility: 2.80 miles (4.51 km)
Ceiling: 2600 feet AGL
Clouds: few clouds at 1300 feet AGL
broken clouds at 2600 feet AGL
overcast cloud deck at 4600 feet AGL
Weather: BR  (mist)

METAR text: ZGKL 200300Z 05004MPS 030V090 9000 BKN026 OVC046 09/06 Q1028 NOSIG
Conditions at: ZGKL (GUILIN , CN) observed 0300 UTC 20 January 2019
Temperature: 9.0°C (48°F)
Dewpoint: 6.0°C (43°F) [RH = 81%]
Pressure (altimeter): 30.35 inches Hg (1028.0 mb)
Winds: from the NE (50 degrees) at 9 MPH (8 knots; 4.1 m/s)
Visibility: 6 miles ( 9 km)
Ceiling: 2600 feet AGL
Clouds: broken clouds at 2600 feet AGL
overcast cloud deck at 4600 feet AGL
Weather: no significant weather observed at this time

METAR text: ZGKL 200200Z 05004MPS 020V090 9000 BKN026 OVC046 09/07 Q1027 NOSIG
Conditions at: ZGKL (GUILIN , CN) observed 0200 UTC 20 January 2019
Temperature: 9.0°C (48°F)
Dewpoint: 7.0°C (45°F) [RH = 87%]
Pressure (altimeter): 30.32 inches Hg (1027.0 mb)
Winds: from the NE (50 degrees) at 9 MPH (8 knots; 4.1 m/s)
Visibility: 6 miles ( 9 km)
Ceiling: 2600 feet AGL
Clouds: broken clouds at 2600 feet AGL
overcast cloud deck at 4600 feet AGL
Weather: no significant weather observed at this time

METAR text: ZGKL 200100Z 04003MPS 020V130 7000 BKN023 OVC040 08/07 Q1026 NOSIG
Conditions at: ZGKL (GUILIN , CN) observed 0100 UTC 20 January 2019
Temperature: 8.0°C (46°F)
Dewpoint: 7.0°C (45°F) [RH = 93%]
Pressure (altimeter): 30.30 inches Hg (1026.0 mb)
Winds: from the NE (40 degrees) at 7 MPH (6 knots; 3.1 m/s)
Visibility: 4 miles ( 7 km)
Ceiling: 2300 feet AGL
Clouds: broken clouds at 2300 feet AGL
overcast cloud deck at 4000 feet AGL
Weather: no significant weather observed at this time

METAR text: ZGKL 200000Z 07002MPS 020V140 6000 -RA FEW007 BKN030 BKN046 08/07 Q1025 NOSIG
Conditions at: ZGKL (GUILIN , CN) observed 0000 UTC 20 January 2019
Temperature: 8.0°C (46°F)
Dewpoint: 7.0°C (45°F) [RH = 93%]
Pressure (altimeter): 30.27 inches Hg (1025.0 mb)
Winds: from the ENE (70 degrees) at 5 MPH (4 knots; 2.1 m/s)
Visibility: 4 miles ( 6 km)
Ceiling: 3000 feet AGL
Clouds: few clouds at 700 feet AGL
broken clouds at 3000 feet AGL
broken clouds at 4600 feet AGL
Weather: -RA  (light rain)

METAR text: ZGKL 192300Z 09002MPS 030V200 4000 -RA BR FEW006 SCT013 OVC033 08/07 Q1024 NOSIG
Conditions at: ZGKL (GUILIN , CN) observed 2300 UTC 19 January 2019
Temperature: 8.0°C (46°F)
Dewpoint: 7.0°C (45°F) [RH = 93%]
Pressure (altimeter): 30.24 inches Hg (1024.0 mb)
Winds: from the E (90 degrees) at 5 MPH (4 knots; 2.1 m/s)
Visibility: 2.49 miles (4.01 km)
Ceiling: 3300 feet AGL
Clouds: few clouds at 600 feet AGL
scattered clouds at 1300 feet AGL
overcast cloud deck at 3300 feet AGL
Weather: -RA BR  (light rain, mist)

METAR text: ZGKL 192200Z 00000MPS 5000 -RA BR FEW007 SCT013 OVC033 09/08 Q1023 NOSIG
Conditions at: ZGKL (GUILIN , CN) observed 2200 UTC 19 January 2019
Temperature: 9.0°C (48°F)
Dewpoint: 8.0°C (46°F) [RH = 93%]
Pressure (altimeter): 30.21 inches Hg (1023.0 mb)
Winds: calm
Visibility: 3 miles ( 5 km)
Ceiling: 3300 feet AGL
Clouds: few clouds at 700 feet AGL
scattered clouds at 1300 feet AGL
overcast cloud deck at 3300 feet AGL
Weather: -RA BR  (light rain, mist)

METAR text: ZGKL 192100Z VRB01MPS 6000 -RA FEW006 SCT013 OVC033 09/08 Q1022 NOSIG
Conditions at: ZGKL (GUILIN , CN) observed 2100 UTC 19 January 2019
Temperature: 9.0°C (48°F)
Dewpoint: 8.0°C (46°F) [RH = 93%]
Pressure (altimeter): 30.18 inches Hg (1022.0 mb)
Winds: variable direction winds at 2 MPH (2 knots; 1.0 m/s)
Visibility: 4 miles ( 6 km)
Ceiling: 3300 feet AGL
Clouds: few clouds at 600 feet AGL
scattered clouds at 1300 feet AGL
overcast cloud deck at 3300 feet AGL
Weather: -RA  (light rain)

METAR text: ZGKL 192000Z 06003MPS 030V090 5000 -RA BR FEW006 SCT023 OVC036 09/08 Q1022 NOSIG
Conditions at: ZGKL (GUILIN , CN) observed 2000 UTC 19 January 2019
Temperature: 9.0°C (48°F)
Dewpoint: 8.0°C (46°F) [RH = 93%]
Pressure (altimeter): 30.18 inches Hg (1022.0 mb)
Winds: from the ENE (60 degrees) at 7 MPH (6 knots; 3.1 m/s)
Visibility: 3 miles ( 5 km)
Ceiling: 3600 feet AGL
Clouds: few clouds at 600 feet AGL
scattered clouds at 2300 feet AGL
overcast cloud deck at 3600 feet AGL
Weather: -RA BR  (light rain, mist)

METAR text: ZGKL 191900Z VRB01MPS 4000 -RA BR FEW005 SCT020 OVC033 09/09 Q1022 NOSIG
Conditions at: ZGKL (GUILIN , CN) observed 1900 UTC 19 January 2019
Temperature: 9.0°C (48°F)
Dewpoint: 9.0°C (48°F) [RH = 100%]
Pressure (altimeter): 30.18 inches Hg (1022.0 mb)
Winds: variable direction winds at 2 MPH (2 knots; 1.0 m/s)
Visibility: 2.49 miles (4.01 km)
Ceiling: 3300 feet AGL
Clouds: few clouds at 500 feet AGL
scattered clouds at 2000 feet AGL
overcast cloud deck at 3300 feet AGL
Weather: -RA BR  (light rain, mist)

METAR text: ZGKL 191800Z 06001MPS 4000 -DZ BR FEW005 SCT020 OVC033 09/09 Q1022 NOSIG
Conditions at: ZGKL (GUILIN , CN) observed 1800 UTC 19 January 2019
Temperature: 9.0°C (48°F)
Dewpoint: 9.0°C (48°F) [RH = 100%]
Pressure (altimeter): 30.18 inches Hg (1022.0 mb)
Winds: from the ENE (60 degrees) at 2 MPH (2 knots; 1.0 m/s)
Visibility: 2.49 miles (4.01 km)
Ceiling: 3300 feet AGL
Clouds: few clouds at 500 feet AGL
scattered clouds at 2000 feet AGL
overcast cloud deck at 3300 feet AGL
Weather: -DZ BR  (light drizzle, mist)

METAR text: ZGKL 191700Z 04002MPS 010V160 4000 -DZ BR FEW005 SCT016 OVC033 10/09 Q1022 NOSIG
Conditions at: ZGKL (GUILIN , CN) observed 1700 UTC 19 January 2019
Temperature: 10.0°C (50°F)
Dewpoint: 9.0°C (48°F) [RH = 93%]
Pressure (altimeter): 30.18 inches Hg (1022.0 mb)
Winds: from the NE (40 degrees) at 5 MPH (4 knots; 2.1 m/s)
Visibility: 2.49 miles (4.01 km)
Ceiling: 3300 feet AGL
Clouds: few clouds at 500 feet AGL
scattered clouds at 1600 feet AGL
overcast cloud deck at 3300 feet AGL
Weather: -DZ BR  (light drizzle, mist)

METAR text: ZGKL 191600Z 04002MPS 020V080 6000 -DZ FEW006 SCT023 OVC033 10/09 Q1022 NOSIG
Conditions at: ZGKL (GUILIN , CN) observed 1600 UTC 19 January 2019
Temperature: 10.0°C (50°F)
Dewpoint: 9.0°C (48°F) [RH = 93%]
Pressure (altimeter): 30.18 inches Hg (1022.0 mb)
Winds: from the NE (40 degrees) at 5 MPH (4 knots; 2.1 m/s)
Visibility: 4 miles ( 6 km)
Ceiling: 3300 feet AGL
Clouds: few clouds at 600 feet AGL
scattered clouds at 2300 feet AGL
overcast cloud deck at 3300 feet AGL
Weather: -DZ  (light drizzle)

METAR text: ZGKL 191500Z 04003MPS 020V130 8000 -RA FEW006 SCT023 OVC033 10/09 Q1022 NOSIG
Conditions at: ZGKL (GUILIN , CN) observed 1500 UTC 19 January 2019
Temperature: 10.0°C (50°F)
Dewpoint: 9.0°C (48°F) [RH = 93%]
Pressure (altimeter): 30.18 inches Hg (1022.0 mb)
Winds: from the NE (40 degrees) at 7 MPH (6 knots; 3.1 m/s)
Visibility: 5 miles ( 8 km)
Ceiling: 3300 feet AGL
Clouds: few clouds at 600 feet AGL
scattered clouds at 2300 feet AGL
overcast cloud deck at 3300 feet AGL
Weather: -RA  (light rain)

METAR text: ZGKL 191400Z 04002MPS 360V150 4500 -RA BR FEW006 SCT016 OVC033 10/09 Q1021 NOSIG
Conditions at: ZGKL (GUILIN , CN) observed 1400 UTC 19 January 2019
Temperature: 10.0°C (50°F)
Dewpoint: 9.0°C (48°F) [RH = 93%]
Pressure (altimeter): 30.15 inches Hg (1021.0 mb)
Winds: from the NE (40 degrees) at 5 MPH (4 knots; 2.1 m/s)
Visibility: 2.80 miles (4.51 km)
Ceiling: 3300 feet AGL
Clouds: few clouds at 600 feet AGL
scattered clouds at 1600 feet AGL
overcast cloud deck at 3300 feet AGL
Weather: -RA BR  (light rain, mist)

METAR text: ZGKL 191300Z 06004MPS 3500 -RA BR FEW010 SCT013 OVC033 10/10 Q1020 NOSIG
Conditions at: ZGKL (GUILIN , CN) observed 1300 UTC 19 January 2019
Temperature: 10.0°C (50°F)
Dewpoint: 10.0°C (50°F) [RH = 100%]
Pressure (altimeter): 30.12 inches Hg (1020.0 mb)
Winds: from the ENE (60 degrees) at 9 MPH (8 knots; 4.1 m/s)
Visibility: 2.17 miles (3.49 km)
Ceiling: 3300 feet AGL
Clouds: few clouds at 1000 feet AGL
scattered clouds at 1300 feet AGL
overcast cloud deck at 3300 feet AGL
Weather: -RA BR  (light rain, mist)

METAR text: ZGKL 191200Z 06005MPS 2800 -RA BR FEW004 SCT011 OVC033 11/10 Q1019 BECMG FM1300 3500
Conditions at: ZGKL (GUILIN , CN) observed 1200 UTC 19 January 2019
Temperature: 11.0°C (52°F)
Dewpoint: 10.0°C (50°F) [RH = 94%]
Pressure (altimeter): 30.09 inches Hg (1019.0 mb)
Winds: from the ENE (60 degrees) at 12 MPH (10 knots; 5.1 m/s)
Visibility: 1.74 miles (2.80 km)
Ceiling: 3300 feet AGL
Clouds: few clouds at 400 feet AGL
scattered clouds at 1100 feet AGL
overcast cloud deck at 3300 feet AGL
Weather: -RA BR  (light rain, mist)

Forecast for: ZGKL (GUILIN , CN)
Text: TAF ZGKL 201911Z 2100/2124 05003MPS 6000 SCT050 TX14/2107Z TN05/2122Z
Forecast period: 0000 UTC 21 January 2019 to 0000 UTC 22 January 2019
Forecast type: FROM: standard forecast or significant change
Winds: from the NE (50 degrees) at 7 MPH (6 knots; 3.1 m/s)
Visibility: 4 miles (6 km)
Ceiling: at least 12,000 feet AGL
Clouds: scattered clouds at 5000 feet AGL
Weather: no significant weather forecast for this period